Time;durP1;ratioP1;P1;durP2;ratioP2;P2;SDS_P1;SDS_P2;PMS_P1;PMS_P2;Temp;Humidity;BMP_temperature;BMP_pressure;BME280_temperature;BME280_humidity;BME280_pressure;Samples;Min_cycle;Max_cycle;Signal;HPM_P1;HPM_P2
2022/03/07 00:00:55;;;;;;;4.18;3.78;;;;;;;;;;5019477;28;20159;-59
2022/03/07 00:03:20;;;;;;;3.92;3.53;;;;;;;;;;5017014;28;20094;-59
2022/03/07 00:05:45;;;;;;;3.45;3.15;;;;;;;;;;5018484;28;20037;-59
2022/03/07 00:08:11;;;;;;;3.47;3.17;;;;;;;;;;5017984;28;20037;-58
2022/03/07 00:10:36;;;;;;;3.97;3.60;;;;;;;;;;5019857;28;20041;-58
2022/03/07 00:13:03;;;;;;;3.33;3.03;;;;;;;;;;5016427;28;20049;-59
2022/03/07 00:15:29;;;;;;;4.05;3.67;;;;;;;;;;5019278;28;20103;-59
2022/03/07 00:17:54;;;;;;;3.35;2.97;;;;;;;;;;5019116;28;20041;-59
2022/03/07 00:20:20;;;;;;;3.42;3.13;;;;;;;;;;5021268;28;20026;-59
2022/03/07 00:22:45;;;;;;;3.30;3.00;;;;;;;;;;5021002;28;20672;-59
2022/03/07 00:25:10;;;;;;;3.10;2.80;;;;;;;;;;5018703;28;20034;-59
2022/03/07 00:27:36;;;;;;;3.50;3.20;;;;;;;;;;5019747;28;20033;-59
2022/03/07 00:30:02;;;;;;;3.47;3.17;;;;;;;;;;5017642;28;20061;-58
2022/03/07 00:32:29;;;;;;;3.83;3.42;;;;;;;;;;5015894;28;20057;-58
2022/03/07 00:34:55;;;;;;;3.50;3.20;;;;;;;;;;5020924;28;20057;-58
2022/03/07 00:37:20;;;;;;;3.53;3.22;;;;;;;;;;5005994;28;20030;-59
2022/03/07 00:39:45;;;;;;;3.63;3.33;;;;;;;;;;5018117;28;20161;-58
2022/03/07 00:42:11;;;;;;;3.47;3.17;;;;;;;;;;5021676;28;20459;-57
2022/03/07 00:44:37;;;;;;;3.67;3.38;;;;;;;;;;5016899;28;20121;-58
2022/03/07 00:47:03;;;;;;;4.18;3.78;;;;;;;;;;5006070;28;20375;-58
2022/03/07 00:49:28;;;;;;;3.40;3.10;;;;;;;;;;5019880;28;20485;-59
2022/03/07 00:51:53;;;;;;;4.18;3.70;;;;;;;;;;5018771;28;20125;-59
2022/03/07 00:54:19;;;;;;;3.50;3.20;;;;;;;;;;5018912;28;20056;-59
2022/03/07 00:56:44;;;;;;;4.05;3.63;;;;;;;;;;5019749;28;20065;-59
2022/03/07 00:59:09;;;;;;;3.55;3.25;;;;;;;;;;5019503;28;20033;-60
2022/03/07 01:01:35;;;;;;;3.67;3.38;;;;;;;;;;5014412;28;20152;-59
2022/03/07 01:04:01;;;;;;;4.32;3.30;;;;;;;;;;5020500;28;20033;-59
2022/03/07 01:06:26;;;;;;;4.50;3.35;;;;;;;;;;5016734;28;20038;-58
2022/03/07 01:08:52;;;;;;;3.20;2.90;;;;;;;;;;5020028;28;20483;-59
2022/03/07 01:11:17;;;;;;;3.55;3.25;;;;;;;;;;5016267;28;20070;-59
2022/03/07 01:13:43;;;;;;;3.30;3.00;;;;;;;;;;5020317;28;20549;-59
2022/03/07 01:16:09;;;;;;;3.72;3.38;;;;;;;;;;5016024;28;20038;-58
2022/03/07 01:18:34;;;;;;;3.42;3.13;;;;;;;;;;5015943;28;20037;-59
2022/03/07 01:20:59;;;;;;;3.63;3.33;;;;;;;;;;5020268;28;20034;-58
2022/03/07 01:23:25;;;;;;;3.50;3.13;;;;;;;;;;5018535;28;20060;-60
2022/03/07 01:25:50;;;;;;;3.47;3.17;;;;;;;;;;5016769;28;20048;-61
2022/03/07 01:28:15;;;;;;;3.67;3.33;;;;;;;;;;5018803;28;20129;-59
2022/03/07 01:30:41;;;;;;;4.03;3.63;;;;;;;;;;5021064;28;20034;-60
2022/03/07 01:33:06;;;;;;;3.47;3.17;;;;;;;;;;5007051;28;20126;-59
2022/03/07 01:35:32;;;;;;;3.67;3.38;;;;;;;;;;5021307;28;20034;-60
2022/03/07 01:37:57;;;;;;;3.33;3.03;;;;;;;;;;5019915;28;20045;-57
2022/03/07 01:40:23;;;;;;;4.13;3.83;;;;;;;;;;5019683;28;20044;-60
2022/03/07 01:42:48;;;;;;;3.90;3.58;;;;;;;;;;5021155;28;20061;-59
2022/03/07 01:45:17;;;;;;;3.60;3.30;;;;;;;;;;5020374;28;20053;-60
2022/03/07 01:47:44;;;;;;;4.53;3.80;;;;;;;;;;5024249;28;20143;-57
2022/03/07 01:50:12;;;;;;;4.10;3.70;;;;;;;;;;5020888;28;20046;-59
2022/03/07 01:52:39;;;;;;;4.60;4.20;;;;;;;;;;5021024;28;20529;-58
2022/03/07 01:55:07;;;;;;;4.05;3.65;;;;;;;;;;5022117;28;20037;-59
2022/03/07 01:57:36;;;;;;;3.42;3.13;;;;;;;;;;5022176;28;20120;-59
2022/03/07 02:00:07;;;;;;;3.72;3.42;;;;;;;;;;5022065;28;20047;-59
2022/03/07 02:02:33;;;;;;;3.38;3.08;;;;;;;;;;5012055;28;20041;-59
2022/03/07 02:04:58;;;;;;;3.47;3.17;;;;;;;;;;5023268;28;20045;-60
2022/03/07 02:07:24;;;;;;;3.83;3.45;;;;;;;;;;5020320;28;20107;-59
2022/03/07 02:09:50;;;;;;;3.70;3.40;;;;;;;;;;5020875;28;20096;-60
2022/03/07 02:12:15;;;;;;;3.92;3.63;;;;;;;;;;5006469;28;20051;-59
2022/03/07 02:14:41;;;;;;;4.38;3.97;;;;;;;;;;5019542;28;20029;-59
2022/03/07 02:17:06;;;;;;;4.55;3.97;;;;;;;;;;5019810;28;20029;-59
2022/03/07 02:19:32;;;;;;;3.72;3.42;;;;;;;;;;5021231;28;20513;-59
2022/03/07 02:22:02;;;;;;;3.90;3.60;;;;;;;;;;5020917;28;20352;-59
2022/03/07 02:24:28;;;;;;;3.42;3.13;;;;;;;;;;5022725;28;20033;-58
2022/03/07 02:27:02;;;;;;;4.68;4.28;;;;;;;;;;5023405;28;20402;-60
2022/03/07 02:29:28;;;;;;;3.92;3.63;;;;;;;;;;5021393;28;20033;-59
2022/03/07 02:31:54;;;;;;;4.00;3.70;;;;;;;;;;5024218;28;20040;-59
2022/03/07 02:34:19;;;;;;;4.18;3.78;;;;;;;;;;5020200;28;20112;-59
2022/03/07 02:36:44;;;;;;;4.03;3.63;;;;;;;;;;5021322;28;20026;-59
2022/03/07 02:39:11;;;;;;;4.72;3.65;;;;;;;;;;5019105;28;20983;-59
2022/03/07 02:41:37;;;;;;;4.15;3.75;;;;;;;;;;5003815;28;20531;-59
2022/03/07 02:44:03;;;;;;;4.20;3.80;;;;;;;;;;5019174;28;20041;-59
2022/03/07 02:46:29;;;;;;;4.28;3.65;;;;;;;;;;5021540;28;20610;-59
2022/03/07 02:48:54;;;;;;;4.45;4.05;;;;;;;;;;5018979;28;20037;-59
2022/03/07 02:51:19;;;;;;;4.32;3.95;;;;;;;;;;5001273;28;20624;-59
2022/03/07 02:53:45;;;;;;;4.05;3.75;;;;;;;;;;5021612;28;20038;-59
2022/03/07 02:56:11;;;;;;;3.95;3.65;;;;;;;;;;5021415;28;20049;-59
2022/03/07 02:58:36;;;;;;;4.40;4.00;;;;;;;;;;5020812;28;20033;-59
2022/03/07 03:01:02;;;;;;;5.40;5.00;;;;;;;;;;5012549;28;20033;-59
2022/03/07 03:03:27;;;;;;;4.72;4.32;;;;;;;;;;5020806;28;20037;-59
2022/03/07 03:05:55;;;;;;;4.68;4.28;;;;;;;;;;5023125;28;20086;-59
2022/03/07 03:08:22;;;;;;;4.68;4.28;;;;;;;;;;5022868;28;20484;-59
2022/03/07 03:10:49;;;;;;;4.43;4.03;;;;;;;;;;5022122;28;20060;-60
2022/03/07 03:13:17;;;;;;;4.32;3.92;;;;;;;;;;5020934;28;20111;-59
2022/03/07 03:15:43;;;;;;;4.40;4.00;;;;;;;;;;4996369;28;20033;-59
2022/03/07 03:18:08;;;;;;;4.80;4.40;;;;;;;;;;5022979;28;20154;-59
2022/03/07 03:20:34;;;;;;;4.45;4.05;;;;;;;;;;5020680;28;20116;-60
2022/03/07 03:22:59;;;;;;;5.55;4.63;;;;;;;;;;5018050;28;20030;-59
2022/03/07 03:25:24;;;;;;;5.00;4.28;;;;;;;;;;5020984;28;20064;-59
2022/03/07 03:27:50;;;;;;;4.45;4.05;;;;;;;;;;5007139;28;20040;-59
2022/03/07 03:30:15;;;;;;;4.88;4.40;;;;;;;;;;5021495;28;20077;-59
2022/03/07 03:32:41;;;;;;;4.00;3.67;;;;;;;;;;5021970;28;20451;-59
2022/03/07 03:35:06;;;;;;;7.63;4.00;;;;;;;;;;5018328;28;20030;-59
2022/03/07 03:37:32;;;;;;;4.15;3.75;;;;;;;;;;5020276;28;20040;-59
2022/03/07 03:39:57;;;;;;;4.00;3.65;;;;;;;;;;5020693;28;20498;-59
2022/03/07 03:42:22;;;;;;;5.18;4.68;;;;;;;;;;5020669;28;20033;-59
2022/03/07 03:44:48;;;;;;;3.63;3.33;;;;;;;;;;4984163;28;20435;-59
2022/03/07 03:47:14;;;;;;;5.00;4.53;;;;;;;;;;5017429;28;20053;-59
2022/03/07 03:49:39;;;;;;;4.22;3.75;;;;;;;;;;5020862;28;20123;-58
2022/03/07 03:52:05;;;;;;;3.95;3.58;;;;;;;;;;5018278;28;20176;-59
2022/03/07 03:54:31;;;;;;;4.47;4.07;;;;;;;;;;5020208;28;20204;-59
2022/03/07 03:56:56;;;;;;;5.95;5.43;;;;;;;;;;5004082;28;20038;-58
2022/03/07 03:59:21;;;;;;;4.78;4.05;;;;;;;;;;5018055;28;20045;-59
2022/03/07 04:01:47;;;;;;;4.75;4.25;;;;;;;;;;5016584;28;20030;-59
2022/03/07 04:04:12;;;;;;;4.47;4.00;;;;;;;;;;5020082;28;20030;-58
2022/03/07 04:06:40;;;;;;;4.60;4.20;;;;;;;;;;5020494;28;20065;-59
2022/03/07 04:09:05;;;;;;;4.85;4.35;;;;;;;;;;5018909;28;20120;-58
2022/03/07 04:11:30;;;;;;;4.43;4.03;;;;;;;;;;5022430;28;20100;-59
2022/03/07 04:13:56;;;;;;;4.38;3.97;;;;;;;;;;5008294;28;20469;-59
2022/03/07 04:16:21;;;;;;;4.28;3.88;;;;;;;;;;5001558;28;20073;-58
2022/03/07 04:18:46;;;;;;;4.20;3.75;;;;;;;;;;5020254;28;20037;-58
2022/03/07 04:21:12;;;;;;;4.30;3.90;;;;;;;;;;5018925;28;20647;-58
2022/03/07 04:23:37;;;;;;;5.63;4.32;;;;;;;;;;5018268;28;20060;-58
2022/03/07 04:26:03;;;;;;;4.72;4.32;;;;;;;;;;5019071;28;20118;-58
2022/03/07 04:28:29;;;;;;;4.15;3.75;;;;;;;;;;5019052;28;20029;-58
2022/03/07 04:30:54;;;;;;;3.92;3.63;;;;;;;;;;5017182;28;20052;-59
2022/03/07 04:33:19;;;;;;;4.60;4.20;;;;;;;;;;4998537;28;20044;-57
2022/03/07 04:35:45;;;;;;;4.53;4.13;;;;;;;;;;5020063;28;20025;-58
2022/03/07 04:38:10;;;;;;;4.00;3.63;;;;;;;;;;5016220;28;20076;-58
2022/03/07 04:40:35;;;;;;;4.53;4.03;;;;;;;;;;5018104;28;20030;-58
2022/03/07 04:43:01;;;;;;;5.35;4.25;;;;;;;;;;5001548;28;20048;-58
2022/03/07 04:45:26;;;;;;;3.97;3.58;;;;;;;;;;4999531;28;20380;-58
2022/03/07 04:47:52;;;;;;;4.97;4.55;;;;;;;;;;5019717;28;20034;-59
2022/03/07 04:50:17;;;;;;;4.45;4.05;;;;;;;;;;5003930;28;20041;-58
2022/03/07 04:52:43;;;;;;;4.38;3.67;;;;;;;;;;5019451;28;20061;-63
2022/03/07 04:55:10;;;;;;;4.43;3.95;;;;;;;;;;5003565;28;20034;-58
2022/03/07 04:57:36;;;;;;;4.88;4.38;;;;;;;;;;5019251;28;20033;-59
2022/03/07 05:00:04;;;;;;;5.40;4.65;;;;;;;;;;5019771;28;20026;-59
2022/03/07 05:02:30;;;;;;;6.30;4.35;;;;;;;;;;5018226;28;20037;-62
2022/03/07 05:04:55;;;;;;;4.35;3.70;;;;;;;;;;5021254;28;20421;-63
2022/03/07 05:07:20;;;;;;;4.97;4.25;;;;;;;;;;5016145;28;20022;-59
2022/03/07 05:09:46;;;;;;;5.45;4.95;;;;;;;;;;5017704;28;20144;-59
2022/03/07 05:12:12;;;;;;;5.93;4.40;;;;;;;;;;5002305;28;20112;-59
2022/03/07 05:14:37;;;;;;;4.82;4.43;;;;;;;;;;5017010;28;20053;-59
2022/03/07 05:17:02;;;;;;;6.38;4.97;;;;;;;;;;5010574;28;20036;-59
2022/03/07 05:19:28;;;;;;;4.85;4.43;;;;;;;;;;5002028;28;20021;-60
2022/03/07 05:21:53;;;;;;;5.40;4.63;;;;;;;;;;5015999;28;20029;-63
2022/03/07 05:24:18;;;;;;;4.05;3.67;;;;;;;;;;5001142;28;20048;-63
2022/03/07 05:26:44;;;;;;;4.80;4.40;;;;;;;;;;5019106;28;20345;-63
2022/03/07 05:29:09;;;;;;;4.43;4.03;;;;;;;;;;5020477;28;20060;-63
2022/03/07 05:31:35;;;;;;;4.75;4.30;;;;;;;;;;5018736;28;20067;-63
2022/03/07 05:34:00;;;;;;;5.88;4.93;;;;;;;;;;5023742;28;20049;-63
2022/03/07 05:36:25;;;;;;;4.72;4.15;;;;;;;;;;5018119;28;20129;-63
2022/03/07 05:38:51;;;;;;;5.63;5.05;;;;;;;;;;5003282;28;20451;-63
2022/03/07 05:41:16;;;;;;;5.90;5.30;;;;;;;;;;5016700;28;20025;-63
2022/03/07 05:43:41;;;;;;;6.97;5.00;;;;;;;;;;5018887;28;20092;-63
2022/03/07 05:46:07;;;;;;;4.50;4.10;;;;;;;;;;5003005;28;20037;-63
2022/03/07 05:48:34;;;;;;;5.07;4.35;;;;;;;;;;5019899;28;20454;-64
2022/03/07 05:50:59;;;;;;;4.32;3.88;;;;;;;;;;5020832;28;20095;-63
2022/03/07 05:53:24;;;;;;;4.60;4.00;;;;;;;;;;5019558;28;20034;-64
2022/03/07 05:55:51;;;;;;;5.47;4.35;;;;;;;;;;5019971;28;20025;-64
2022/03/07 05:58:16;;;;;;;6.13;4.40;;;;;;;;;;5018968;28;20037;-58
2022/03/07 06:00:42;;;;;;;5.85;4.60;;;;;;;;;;5019516;28;20678;-58
2022/03/07 06:03:08;;;;;;;8.18;5.47;;;;;;;;;;5018999;28;20037;-64
2022/03/07 06:05:33;;;;;;;7.35;5.50;;;;;;;;;;5016371;28;20034;-59
2022/03/07 06:07:59;;;;;;;5.00;4.40;;;;;;;;;;5017157;28;20044;-64
2022/03/07 06:10:25;;;;;;;4.70;4.30;;;;;;;;;;5019558;28;20378;-59
2022/03/07 06:12:50;;;;;;;4.55;4.15;;;;;;;;;;5001148;28;20088;-59
2022/03/07 06:15:16;;;;;;;4.47;4.07;;;;;;;;;;5018463;28;20049;-63
2022/03/07 06:17:50;;;;;;;3.70;3.22;;;;;;;;;;5021365;28;20025;-63
2022/03/07 06:20:15;;;;;;;4.53;4.13;;;;;;;;;;5017859;28;20030;-63
2022/03/07 06:22:40;;;;;;;4.45;4.05;;;;;;;;;;5018966;28;20044;-63
2022/03/07 06:25:06;;;;;;;4.55;4.15;;;;;;;;;;5022541;28;20396;-62
2022/03/07 06:27:31;;;;;;;5.25;4.75;;;;;;;;;;5022761;28;20036;-62
2022/03/07 06:29:57;;;;;;;4.55;4.10;;;;;;;;;;5009161;28;20125;-63
2022/03/07 06:32:23;;;;;;;4.35;3.97;;;;;;;;;;5024894;28;20640;-62
2022/03/07 06:34:49;;;;;;;5.78;5.25;;;;;;;;;;5020598;28;20030;-62
2022/03/07 06:37:14;;;;;;;4.95;4.53;;;;;;;;;;5027143;28;20041;-62
2022/03/07 06:39:40;;;;;;;4.20;3.80;;;;;;;;;;5021179;28;20029;-63
2022/03/07 06:42:05;;;;;;;10.30;5.00;;;;;;;;;;5019225;28;20045;-62
2022/03/07 06:44:30;;;;;;;5.15;4.63;;;;;;;;;;5015906;28;20034;-62
2022/03/07 06:46:56;;;;;;;4.43;4.03;;;;;;;;;;5022137;28;20640;-59
2022/03/07 06:49:21;;;;;;;4.53;4.13;;;;;;;;;;5020684;28;20037;-58
2022/03/07 06:51:47;;;;;;;4.90;4.50;;;;;;;;;;5021417;28;20044;-62
2022/03/07 06:54:12;;;;;;;4.82;4.43;;;;;;;;;;4990343;28;20382;-58
2022/03/07 06:56:38;;;;;;;5.72;5.20;;;;;;;;;;5020659;28;20374;-59
2022/03/07 06:59:03;;;;;;;4.22;3.83;;;;;;;;;;5020067;28;20085;-63
2022/03/07 07:01:29;;;;;;;4.38;3.97;;;;;;;;;;5021443;28;20037;-62
2022/03/07 07:03:54;;;;;;;4.72;4.32;;;;;;;;;;5005144;28;20466;-64
2022/03/07 07:06:20;;;;;;;4.43;3.85;;;;;;;;;;5019789;28;20048;-63
2022/03/07 07:08:46;;;;;;;4.35;3.95;;;;;;;;;;5023111;28;20033;-64
2022/03/07 07:11:11;;;;;;;5.20;4.70;;;;;;;;;;5023203;28;20129;-63
2022/03/07 07:13:36;;;;;;;4.88;4.40;;;;;;;;;;5018935;28;20069;-62
2022/03/07 07:16:02;;;;;;;4.72;4.32;;;;;;;;;;5003235;28;20429;-59
2022/03/07 07:18:27;;;;;;;4.50;4.10;;;;;;;;;;5020226;28;20112;-59
2022/03/07 07:20:53;;;;;;;4.30;3.90;;;;;;;;;;5021501;28;21249;-60
2022/03/07 07:23:19;;;;;;;5.18;4.78;;;;;;;;;;5020911;28;20041;-60
2022/03/07 07:25:45;;;;;;;4.72;4.22;;;;;;;;;;5018563;28;20052;-60
2022/03/07 07:28:11;;;;;;;4.82;4.43;;;;;;;;;;5018706;28;20045;-62
2022/03/07 07:30:37;;;;;;;4.80;4.35;;;;;;;;;;5007741;28;20036;-63
2022/03/07 07:33:02;;;;;;;4.07;3.67;;;;;;;;;;5020455;28;20120;-63
2022/03/07 07:35:28;;;;;;;4.20;3.80;;;;;;;;;;5019376;28;20041;-59
2022/03/07 07:37:54;;;;;;;4.43;4.03;;;;;;;;;;5019763;28;20046;-59
2022/03/07 07:40:20;;;;;;;4.60;4.20;;;;;;;;;;5019108;28;20061;-61
2022/03/07 07:42:45;;;;;;;4.10;3.70;;;;;;;;;;5020106;28;20502;-61
2022/03/07 07:45:12;;;;;;;5.10;4.10;;;;;;;;;;5003703;28;20041;-62
2022/03/07 07:47:38;;;;;;;4.20;3.67;;;;;;;;;;5020273;28;20041;-62
2022/03/07 07:50:04;;;;;;;5.05;4.65;;;;;;;;;;5017080;28;20030;-58
2022/03/07 07:52:30;;;;;;;12.95;8.13;;;;;;;;;;5021746;28;20065;-58
2022/03/07 07:54:55;;;;;;;4.80;4.38;;;;;;;;;;5020152;28;20064;-59
2022/03/07 07:57:21;;;;;;;9.25;4.15;;;;;;;;;;5019727;28;20038;-59
2022/03/07 07:59:46;;;;;;;5.30;4.80;;;;;;;;;;5017015;28;20037;-59
2022/03/07 08:02:11;;;;;;;4.05;3.70;;;;;;;;;;5018028;28;20452;-59
2022/03/07 08:04:37;;;;;;;5.30;4.80;;;;;;;;;;5019878;28;20033;-58
2022/03/07 08:07:03;;;;;;;5.15;4.38;;;;;;;;;;5018702;28;20029;-58
2022/03/07 08:09:28;;;;;;;5.20;4.70;;;;;;;;;;5019181;28;20065;-58
2022/03/07 08:11:53;;;;;;;5.40;4.90;;;;;;;;;;5021534;28;20041;-58
2022/03/07 08:14:19;;;;;;;3.67;3.33;;;;;;;;;;5021026;28;20048;-62
2022/03/07 08:16:44;;;;;;;4.38;3.97;;;;;;;;;;5019059;28;20038;-62
2022/03/07 08:19:10;;;;;;;4.30;3.90;;;;;;;;;;5021086;28;20034;-62
2022/03/07 08:21:35;;;;;;;4.07;3.67;;;;;;;;;;5020794;28;20033;-59
2022/03/07 08:24:01;;;;;;;4.40;3.65;;;;;;;;;;5019266;28;20045;-62
2022/03/07 08:26:27;;;;;;;4.97;4.38;;;;;;;;;;5020332;28;20053;-62
2022/03/07 08:28:52;;;;;;;3.85;3.55;;;;;;;;;;5004477;28;22302;-62
2022/03/07 08:31:17;;;;;;;4.32;3.92;;;;;;;;;;5014425;28;20443;-62
2022/03/07 08:33:43;;;;;;;4.50;4.07;;;;;;;;;;5016200;28;20038;-62
2022/03/07 08:36:08;;;;;;;4.55;4.15;;;;;;;;;;5016476;28;20037;-63
2022/03/07 08:38:34;;;;;;;4.20;3.80;;;;;;;;;;5015503;28;20471;-61
2022/03/07 08:41:01;;;;;;;6.40;4.32;;;;;;;;;;5015815;28;20037;-62
2022/03/07 08:43:26;;;;;;;4.68;3.90;;;;;;;;;;5015997;28;20466;-61
2022/03/07 08:45:51;;;;;;;4.55;4.15;;;;;;;;;;5014739;28;20075;-61
2022/03/07 08:48:17;;;;;;;3.60;3.30;;;;;;;;;;5015846;28;20029;-61
2022/03/07 08:50:46;;;;;;;4.15;3.75;;;;;;;;;;5016708;28;20489;-62
2022/03/07 08:53:11;;;;;;;4.30;3.90;;;;;;;;;;5014692;28;20117;-62
2022/03/07 08:55:37;;;;;;;5.03;4.63;;;;;;;;;;4998691;28;20130;-62
2022/03/07 08:58:02;;;;;;;4.18;3.78;;;;;;;;;;4996664;28;20053;-62
2022/03/07 09:00:28;;;;;;;4.40;4.00;;;;;;;;;;5014808;28;20111;-62
2022/03/07 09:02:53;;;;;;;4.85;4.40;;;;;;;;;;5012446;28;20041;-62
2022/03/07 09:05:18;;;;;;;5.03;3.80;;;;;;;;;;5012997;28;20438;-62
2022/03/07 09:07:44;;;;;;;4.15;3.58;;;;;;;;;;5012262;28;20131;-62
2022/03/07 09:10:10;;;;;;;3.72;3.42;;;;;;;;;;5015274;28;20509;-62
2022/03/07 09:12:35;;;;;;;5.18;3.83;;;;;;;;;;5016022;28;20041;-62
2022/03/07 09:15:04;;;;;;;4.30;3.90;;;;;;;;;;5015150;28;20037;-62
2022/03/07 09:17:29;;;;;;;4.43;4.03;;;;;;;;;;5016055;28;20034;-62
2022/03/07 09:19:58;;;;;;;4.03;3.70;;;;;;;;;;5014556;28;20033;-63
2022/03/07 09:22:24;;;;;;;5.07;4.53;;;;;;;;;;5013432;28;20029;-63
2022/03/07 09:24:50;;;;;;;6.00;5.50;;;;;;;;;;5018457;28;20049;-63
2022/03/07 09:27:15;;;;;;;5.75;4.78;;;;;;;;;;5005956;28;20037;-63
2022/03/07 09:29:41;;;;;;;4.00;3.70;;;;;;;;;;5016666;28;20377;-63
2022/03/07 09:32:07;;;;;;;4.60;4.20;;;;;;;;;;5014825;28;20038;-63
2022/03/07 09:34:33;;;;;;;4.15;3.75;;;;;;;;;;5014216;28;20038;-63
2022/03/07 09:36:59;;;;;;;4.00;3.60;;;;;;;;;;5015838;28;20034;-63
2022/03/07 09:39:25;;;;;;;5.03;4.63;;;;;;;;;;5018559;28;20425;-63
2022/03/07 09:41:50;;;;;;;4.25;3.92;;;;;;;;;;5014070;28;20475;-64
2022/03/07 09:44:16;;;;;;;4.97;4.40;;;;;;;;;;5003547;28;20029;-59
2022/03/07 09:46:41;;;;;;;4.63;4.22;;;;;;;;;;5017857;28;20034;-59
2022/03/07 09:49:07;;;;;;;4.75;4.35;;;;;;;;;;4993143;28;20033;-63
2022/03/07 09:51:32;;;;;;;4.25;3.85;;;;;;;;;;5018089;28;20038;-64
2022/03/07 09:53:57;;;;;;;3.90;3.60;;;;;;;;;;5017505;28;20038;-64
2022/03/07 09:56:23;;;;;;;4.20;3.80;;;;;;;;;;5016971;28;20099;-62
2022/03/07 09:58:48;;;;;;;4.72;4.32;;;;;;;;;;5016497;28;20463;-62
2022/03/07 10:01:19;;;;;;;5.05;4.20;;;;;;;;;;5021154;28;20033;-62
2022/03/07 10:03:46;;;;;;;4.22;3.83;;;;;;;;;;5017161;28;20040;-62
2022/03/07 10:06:13;;;;;;;5.72;4.50;;;;;;;;;;5021117;28;20092;-62
2022/03/07 10:08:39;;;;;;;4.75;4.35;;;;;;;;;;5020078;28;20088;-62
2022/03/07 10:11:09;;;;;;;4.35;3.95;;;;;;;;;;5020514;28;20041;-61
2022/03/07 10:13:35;;;;;;;4.32;3.92;;;;;;;;;;5017212;28;20512;-62
2022/03/07 10:16:03;;;;;;;4.75;4.35;;;;;;;;;;5020152;28;20149;-62
2022/03/07 10:18:30;;;;;;;5.78;4.60;;;;;;;;;;5003700;28;20430;-62
2022/03/07 10:21:01;;;;;;;4.25;3.85;;;;;;;;;;5018448;28;20034;-61
2022/03/07 10:23:27;;;;;;;4.50;4.10;;;;;;;;;;5019066;28;20112;-61
2022/03/07 10:26:05;;;;;;;4.75;4.35;;;;;;;;;;5018580;28;20433;-62
2022/03/07 10:28:35;;;;;;;5.15;4.65;;;;;;;;;;5017774;28;20040;-62
2022/03/07 10:31:14;;;;;;;4.60;4.20;;;;;;;;;;5001150;28;20104;-62
2022/03/07 10:33:40;;;;;;;4.57;4.18;;;;;;;;;;5018514;28;20415;-62
2022/03/07 10:36:06;;;;;;;4.47;4.07;;;;;;;;;;5019563;28;20121;-62
2022/03/07 10:38:32;;;;;;;4.60;4.20;;;;;;;;;;5002388;28;20053;-62
2022/03/07 10:40:57;;;;;;;4.82;4.43;;;;;;;;;;5018943;28;20126;-62
2022/03/07 10:43:23;;;;;;;4.93;4.53;;;;;;;;;;5020944;28;20036;-62
2022/03/07 10:45:50;;;;;;;4.82;4.38;;;;;;;;;;5021116;28;20464;-62
2022/03/07 10:48:16;;;;;;;4.88;4.47;;;;;;;;;;5016979;28;20042;-61
2022/03/07 10:50:50;;;;;;;4.90;4.50;;;;;;;;;;5019882;28;20030;-63
2022/03/07 10:53:15;;;;;;;4.93;4.53;;;;;;;;;;5020082;28;20395;-62
2022/03/07 10:55:41;;;;;;;4.20;3.85;;;;;;;;;;5018215;28;20041;-60
2022/03/07 10:58:15;;;;;;;5.03;4.53;;;;;;;;;;5019560;28;20037;-60
2022/03/07 11:00:59;;;;;;;4.22;3.83;;;;;;;;;;5016485;28;20030;-61
2022/03/07 11:03:30;;;;;;;6.07;4.85;;;;;;;;;;5013990;28;20037;-62
2022/03/07 11:05:56;;;;;;;5.43;4.90;;;;;;;;;;5018178;28;20052;-62
2022/03/07 11:08:22;;;;;;;4.68;4.20;;;;;;;;;;5020172;28;20042;-60
2022/03/07 11:10:53;;;;;;;5.22;4.82;;;;;;;;;;5019160;28;20039;-61
2022/03/07 11:13:25;;;;;;;6.07;5.47;;;;;;;;;;5016090;28;20045;-62
2022/03/07 11:15:51;;;;;;;5.25;4.75;;;;;;;;;;5014817;28;20108;-60
2022/03/07 11:18:18;;;;;;;5.60;5.20;;;;;;;;;;5017845;28;20030;-62
2022/03/07 11:20:45;;;;;;;5.18;4.78;;;;;;;;;;5017346;28;20030;-62
2022/03/07 11:23:11;;;;;;;4.90;4.50;;;;;;;;;;5016098;28;20384;-62
2022/03/07 11:25:40;;;;;;;4.93;4.43;;;;;;;;;;5017955;28;20057;-62
2022/03/07 11:28:06;;;;;;;5.28;4.78;;;;;;;;;;5017104;28;20037;-62
2022/03/07 11:30:39;;;;;;;5.53;5.13;;;;;;;;;;4997658;28;20044;-61
2022/03/07 11:33:09;;;;;;;4.57;4.15;;;;;;;;;;5014192;28;20041;-62
2022/03/07 11:35:35;;;;;;;4.90;4.40;;;;;;;;;;5019096;28;20052;-63
2022/03/07 11:38:10;;;;;;;4.95;4.55;;;;;;;;;;5016622;28;20034;-62
2022/03/07 11:40:56;;;;;;;4.65;4.25;;;;;;;;;;5013820;28;20034;-62
2022/03/07 11:43:24;;;;;;;5.82;4.07;;;;;;;;;;5016545;28;20375;-62
2022/03/07 11:45:50;;;;;;;4.40;4.00;;;;;;;;;;5017016;28;20475;-61
2022/03/07 11:48:15;;;;;;;5.00;4.50;;;;;;;;;;5017316;28;20052;-61
2022/03/07 11:50:41;;;;;;;4.75;4.35;;;;;;;;;;5017762;28;20438;-62
2022/03/07 11:53:07;;;;;;;4.25;3.85;;;;;;;;;;5016040;28;20048;-62
2022/03/07 11:55:41;;;;;;;5.95;5.43;;;;;;;;;;5017101;28;20075;-62
2022/03/07 11:58:08;;;;;;;4.60;4.20;;;;;;;;;;5014132;28;20069;-63
2022/03/07 12:00:36;;;;;;;4.85;4.45;;;;;;;;;;5017864;28;20110;-63
2022/03/07 12:03:16;;;;;;;4.90;4.50;;;;;;;;;;5016342;28;20038;-63
2022/03/07 12:05:43;;;;;;;4.97;4.57;;;;;;;;;;5013491;28;20454;-62
2022/03/07 12:08:15;;;;;;;4.75;4.35;;;;;;;;;;5018328;28;20041;-61
2022/03/07 12:10:55;;;;;;;4.63;4.22;;;;;;;;;;5001981;28;20073;-61
2022/03/07 12:13:21;;;;;;;5.18;4.70;;;;;;;;;;5016381;28;20463;-61
2022/03/07 12:15:48;;;;;;;4.78;4.38;;;;;;;;;;4999678;28;20073;-63
2022/03/07 12:18:15;;;;;;;4.13;3.83;;;;;;;;;;5015788;28;20508;-62
2022/03/07 12:21:00;;;;;;;4.63;4.22;;;;;;;;;;5016776;28;20030;-62
2022/03/07 12:23:28;;;;;;;5.60;5.10;;;;;;;;;;4997566;28;20055;-62
2022/03/07 12:26:05;;;;;;;4.88;4.13;;;;;;;;;;5017520;28;20652;-61
2022/03/07 12:28:36;;;;;;;4.00;3.70;;;;;;;;;;5014061;28;20705;-61
2022/03/07 12:31:02;;;;;;;4.40;4.00;;;;;;;;;;5015774;28;20061;-62
2022/03/07 12:33:28;;;;;;;4.88;4.45;;;;;;;;;;5013341;28;20084;-62
2022/03/07 12:36:09;;;;;;;5.30;4.80;;;;;;;;;;5018790;28;20088;-62
2022/03/07 12:38:46;;;;;;;4.82;4.28;;;;;;;;;;5012638;28;20033;-62
2022/03/07 12:41:13;;;;;;;4.80;4.40;;;;;;;;;;5001811;28;20041;-62
2022/03/07 12:43:39;;;;;;;5.18;4.78;;;;;;;;;;5015084;28;20297;-63
2022/03/07 12:46:04;;;;;;;5.20;4.80;;;;;;;;;;5015751;28;20125;-62
2022/03/07 12:48:43;;;;;;;4.65;4.25;;;;;;;;;;5017450;28;20038;-62
2022/03/07 12:51:12;;;;;;;4.95;4.45;;;;;;;;;;5015662;28;20253;-62
2022/03/07 12:53:49;;;;;;;5.40;4.97;;;;;;;;;;5015144;28;20261;-62
2022/03/07 12:56:20;;;;;;;5.05;4.65;;;;;;;;;;5017585;28;20048;-62
2022/03/07 12:58:56;;;;;;;7.60;6.82;;;;;;;;;;5016645;28;20313;-62
2022/03/07 13:01:23;;;;;;;4.28;3.92;;;;;;;;;;5019311;28;20103;-62
2022/03/07 13:03:51;;;;;;;5.68;4.80;;;;;;;;;;5015417;28;20118;-62
2022/03/07 13:06:17;;;;;;;5.45;4.95;;;;;;;;;;5013004;28;20041;-62
2022/03/07 13:08:51;;;;;;;4.68;4.28;;;;;;;;;;5013096;28;20060;-62
2022/03/07 13:11:17;;;;;;;5.18;4.68;;;;;;;;;;5015310;28;20427;-63
2022/03/07 13:13:44;;;;;;;6.53;5.10;;;;;;;;;;5015021;28;20038;-62
2022/03/07 13:16:10;;;;;;;5.55;5.03;;;;;;;;;;5020107;28;20060;-62
2022/03/07 13:18:35;;;;;;;4.43;4.07;;;;;;;;;;5016116;28;20629;-62
2022/03/07 13:21:00;;;;;;;4.47;4.07;;;;;;;;;;5009193;28;20036;-61
2022/03/07 13:23:29;;;;;;;5.05;4.60;;;;;;;;;;5000064;28;20471;-59
2022/03/07 13:25:55;;;;;;;4.93;4.53;;;;;;;;;;5018382;28;20044;-61
2022/03/07 13:28:30;;;;;;;4.53;4.13;;;;;;;;;;5024035;28;20436;-64
2022/03/07 13:30:57;;;;;;;4.35;3.95;;;;;;;;;;5019352;28;20033;-62
2022/03/07 13:33:32;;;;;;;4.68;4.28;;;;;;;;;;5022386;28;20603;-62
2022/03/07 13:35:57;;;;;;;4.60;4.20;;;;;;;;;;5023961;28;20105;-61
2022/03/07 13:38:23;;;;;;;5.30;4.90;;;;;;;;;;5020711;28;20116;-62
2022/03/07 13:40:49;;;;;;;6.22;5.60;;;;;;;;;;5011391;28;20103;-63
2022/03/07 13:43:14;;;;;;;4.93;4.53;;;;;;;;;;5003591;28;20029;-62
2022/03/07 13:45:39;;;;;;;5.25;4.80;;;;;;;;;;5021649;28;20399;-61
2022/03/07 13:48:11;;;;;;;4.78;4.38;;;;;;;;;;5023318;28;20037;-61
2022/03/07 13:50:43;;;;;;;4.35;3.95;;;;;;;;;;5020856;28;20132;-62
2022/03/07 13:53:13;;;;;;;5.10;4.70;;;;;;;;;;5007942;28;20049;-61
2022/03/07 13:55:50;;;;;;;4.72;4.32;;;;;;;;;;5022449;28;20096;-62
2022/03/07 13:58:24;;;;;;;5.45;4.95;;;;;;;;;;5017564;28;20107;-62
2022/03/07 14:01:06;;;;;;;4.90;4.40;;;;;;;;;;5009983;28;20087;-62
2022/03/07 14:03:32;;;;;;;4.22;3.90;;;;;;;;;;5022704;28;20075;-63
2022/03/07 14:05:59;;;;;;;4.75;4.35;;;;;;;;;;5024099;28;20060;-61
2022/03/07 14:08:41;;;;;;;5.65;5.05;;;;;;;;;;5021370;28;20042;-62
2022/03/07 14:11:09;;;;;;;5.32;4.82;;;;;;;;;;5022074;28;20118;-63
2022/03/07 14:13:45;;;;;;;11.30;4.45;;;;;;;;;;5019383;28;20030;-63
2022/03/07 14:16:13;;;;;;;5.50;5.00;;;;;;;;;;5022678;28;20113;-62
2022/03/07 14:18:38;;;;;;;5.82;5.30;;;;;;;;;;5021282;28;20034;-62
2022/03/07 14:21:04;;;;;;;5.65;4.75;;;;;;;;;;5006046;28;20700;-62
2022/03/07 14:23:31;;;;;;;4.80;4.40;;;;;;;;;;5018921;28;20127;-63
2022/03/07 14:25:57;;;;;;;4.97;4.50;;;;;;;;;;5020742;28;20029;-62
2022/03/07 14:28:23;;;;;;;5.07;4.60;;;;;;;;;;5019663;28;20167;-62
2022/03/07 14:30:49;;;;;;;4.65;4.25;;;;;;;;;;5020800;28;20117;-63
2022/03/07 14:33:15;;;;;;;19.27;4.47;;;;;;;;;;5020897;28;20049;-62
2022/03/07 14:35:40;;;;;;;5.10;4.70;;;;;;;;;;5007443;28;20045;-63
2022/03/07 14:38:08;;;;;;;5.03;4.63;;;;;;;;;;4990047;28;20064;-60
2022/03/07 14:40:33;;;;;;;5.07;4.18;;;;;;;;;;5000242;28;20038;-60